Buoy 17652

sailwx.info

Track history (hours):
 
Tides and Currents Weather Stations Pressure Air Temp Water Temp Dewpoint Dewpoint Depression Visibility Wind Speed Wind Dir Waves Ship Positions

Drifting buoy 17652

Last reported at 2014-Oct-25 12:00 UTC. Time now 2014-Oct-25 13:36 UTC.
Position S 37°50' E 040°47'.

Water temperature 16.8 ° C

Date/timePositionNaut miles runAvg speedWind from/ knotsBaromVisibWave heightAir tempDewpointWater temp
2014-Oct-25 12:00S 37°50' E 040°47'1 1.0 16.8
2014-Oct-25 11:00S 37°50' E 040°48'2 0.3 16.8
2014-Oct-25 05:00S 37°50' E 040°51'1 0.4 16.8
2014-Oct-25 03:00S 37°49' E 040°51'1 0.5 16.8
2014-Oct-25 01:00S 37°48' E 040°51'0 0.3 16.9
2014-Oct-25 00:00S 37°48' E 040°51'1 1.0 16.9
2014-Oct-24 23:00S 37°47' E 040°51'0 0.0 16.9
2014-Oct-24 22:00S 37°47' E 040°51'2 0.8 16.9
2014-Oct-24 19:00S 37°45' E 040°52'0 0.0 16.9
2014-Oct-24 18:00S 37°45' E 040°52'3 0.9 16.9
2014-Oct-24 15:00S 37°42' E 040°53'2 1.7 17.0
2014-Oct-24 14:00S 37°41' E 040°55'0 0.4 17.0
2014-Oct-24 13:00S 37°41' E 040°55'5 0.7 17.1
2014-Oct-24 06:00S 37°40' E 041°01'1 0.5 16.8
2014-Oct-24 04:00S 37°39' E 041°02'1 0.8 16.8
2014-Oct-24 03:00S 37°39' E 041°02'0 0.2 16.8
2014-Oct-24 02:00S 37°39' E 041°02'1 1.1 16.8
2014-Oct-24 01:00S 37°38' E 041°03'0 0.2 16.8
2014-Oct-24 00:00S 37°38' E 041°04'1 0.7 16.8
2014-Oct-23 22:00S 37°37' E 041°05'5 0.8 16.8
2014-Oct-23 16:00S 37°33' E 041°09'1 0.7 16.8
2014-Oct-23 15:00S 37°32' E 041°09'1 0.9 16.8
2014-Oct-23 14:00S 37°32' E 041°10'8 1.2 16.9
2014-Oct-23 07:00S 37°27' E 041°19'0 0.0 16.8
2014-Oct-23 06:00S 37°27' E 041°19'0 0.3 16.8
2014-Oct-23 05:00S 37°27' E 041°19'0 0.1 16.8
2014-Oct-23 04:00S 37°27' E 041°19'3 1.6 16.8
2014-Oct-23 02:00S 37°25' E 041°22'0 0.0 16.8
2014-Oct-23 01:00S 37°25' E 041°22'0 0.3 16.7
2014-Oct-23 00:00S 37°25' E 041°23'1 1.3 16.7
2014-Oct-22 23:00S 37°24' E 041°24'0 0.0 16.8
2014-Oct-22 22:00S 37°24' E 041°24'3 1.1 16.8
2014-Oct-22 19:00S 37°23' E 041°27'2 1.9 16.8
2014-Oct-22 18:00S 37°22' E 041°30'0 0.0 16.8
2014-Oct-22 17:00S 37°22' E 041°30'1 1.4 16.8
2014-Oct-22 16:00S 37°21' E 041°31'1 1.4 16.8
2014-Oct-22 15:00S 37°20' E 041°32'2 1.6 16.8
2014-Oct-22 14:00S 37°20' E 041°34'0 0.1 16.9
2014-Oct-22 13:00S 37°20' E 041°34'3 0.8 16.9
2014-Oct-22 10:00S 37°19' E 041°37'4 2.1 16.8
2014-Oct-22 08:00S 37°18' E 041°42'1 0.3 16.8
2014-Oct-22 06:00S 37°18' E 041°43'1 0.5 16.8
2014-Oct-22 03:00S 37°19' E 041°45'2 1.1 16.7
2014-Oct-22 01:00S 37°19' E 041°47'1 0.4 16.7
2014-Oct-21 23:00S 37°19' E 041°48'2 1.6 16.7
2014-Oct-21 22:00S 37°20' E 041°50'2 0.8 16.7
2014-Oct-21 20:00S 37°21' E 041°51'0 0.2 16.7
2014-Oct-21 19:00S 37°21' E 041°52'4 0.9 16.7
2014-Oct-21 14:00S 37°24' E 041°56'2 1.9 16.8
2014-Oct-21 13:00S 37°25' E 041°58'0 0.0 16.8
2014-Oct-21 12:00S 37°25' E 041°58'0 0.0 16.8
2014-Oct-21 11:00S 37°25' E 041°58'5 1.6 16.8
2014-Oct-21 08:00S 37°29' E 042°02'0 0.0 16.7
2014-Oct-21 07:00S 37°29' E 042°02'5 4.9 16.7
2014-Oct-21 06:00S 37°32' E 042°07'0 0.0 16.7
2014-Oct-21 05:00S 37°32' E 042°07'7 1.6 16.7
2014-Oct-21 01:00S 37°35' E 042°14'0 0.0 16.7
2014-Oct-21 00:00S 37°35' E 042°14'3 3.0 16.8
2014-Oct-20 23:00S 37°35' E 042°18'2 1.0 16.8
2014-Oct-20 21:00S 37°35' E 042°21'2 0.5 16.8
2014-Oct-20 18:00S 37°34' E 042°23'5 1.6 16.8
2014-Oct-20 15:00S 37°34' E 042°29'0 0.0 16.9
2014-Oct-20 14:00S 37°34' E 042°29'3 0.7 16.9
2014-Oct-20 09:00S 37°36' E 042°33'5 1.7 16.9
2014-Oct-20 06:00S 37°40' E 042°37'0 0.0 16.9
2014-Oct-20 05:00S 37°40' E 042°37'1 0.6 16.9
2014-Oct-20 04:00S 37°40' E 042°37'1 0.6 16.9
2014-Oct-20 02:00S 37°41' E 042°38'1 1.1 16.9
2014-Oct-20 01:00S 37°42' E 042°38'1 0.7 16.9
2014-Oct-20 00:00S 37°42' E 042°39'1 0.4 16.9
2014-Oct-19 21:00S 37°43' E 042°40'1 1.4 16.9
2014-Oct-19 20:00S 37°45' E 042°41'1 0.5 16.9
2014-Oct-19 18:00S 37°45' E 042°42'1 0.6 16.9
2014-Oct-19 16:00S 37°46' E 042°43'1 0.6 16.9
2014-Oct-19 15:00S 37°46' E 042°43'0 0.3 16.9
2014-Oct-19 14:00S 37°47' E 042°43'1 1.1 16.9
2014-Oct-19 13:00S 37°47' E 042°44'1 0.8 16.9
2014-Oct-19 12:00S 37°47' E 042°45'1 0.3 16.9
2014-Oct-19 10:00S 37°47' E 042°46'4 0.8 16.9
2014-Oct-19 05:00S 37°48' E 042°51'0 0.0 16.9
2014-Oct-19 04:00S 37°48' E 042°51'0 0.1 16.9
2014-Oct-19 03:00S 37°48' E 042°51'2 1.7 16.9
2014-Oct-19 02:00S 37°48' E 042°53'1 1.0 16.9
2014-Oct-19 01:00S 37°49' E 042°54'1 0.5 16.9
2014-Oct-18 22:00S 37°50' E 042°55'1 1.0 16.9
2014-Oct-18 21:00S 37°50' E 042°56'2 0.6 16.9
2014-Oct-18 17:00S 37°51' E 042°59'1 0.7 16.9
2014-Oct-18 15:00S 37°52' E 042°60'2 0.8 16.9
2014-Oct-18 13:00S 37°53' E 043°02'0 0.3 16.9
2014-Oct-18 12:00S 37°53' E 043°02'1 1.2 17.0
2014-Oct-18 11:00S 37°54' E 043°03'4 0.7 17.0
2014-Oct-18 06:00S 37°56' E 043°06'2 2.2 16.9
2014-Oct-18 05:00S 37°58' E 043°08'1 0.4 16.9
2014-Oct-18 02:00S 37°59' E 043°09'1 1.2 16.9
2014-Oct-18 01:00S 38°00' E 043°09'5 1.0 16.9
2014-Oct-17 20:00S 38°05' E 043°11'2 1.6 16.9
2014-Oct-17 19:00S 38°06' E 043°11'1 0.5 16.9
2014-Oct-17 17:00S 38°07' E 043°12'1 0.7 16.9
2014-Oct-17 15:00S 38°08' E 043°14'8 0.8 16.9
2014-Oct-17 05:00S 38°12' E 043°22'4 1.5 16.4
2014-Oct-17 02:00S 38°15' E 043°25'0 0.0 16.4
2014-Oct-17 01:00S 38°15' E 043°25'1 1.4 16.4
2014-Oct-17 00:00S 38°16' E 043°27'2 0.6 16.4
2014-Oct-16 20:00S 38°18' E 043°29'4 1.2 16.4
2014-Oct-16 17:00S 38°20' E 043°33'14 1.3 16.6
2014-Oct-16 06:00S 38°31' E 043°45'4 0.7 16.7
2014-Oct-16 01:00S 38°33' E 043°48'2 0.6 16.6
2014-Oct-15 22:00S 38°34' E 043°50'4 1.1 16.6
2014-Oct-15 18:00S 38°37' E 043°54'2 1.0 16.7
2014-Oct-15 16:00S 38°37' E 043°57'4 2.2 16.7
2014-Oct-15 14:00S 38°39' E 044°01'1 0.6 16.7
2014-Oct-15 13:00S 38°40' E 044°02'   16.7
Track history (hours):
 
Tides and Currents Weather Stations Pressure Air Temp Water Temp Dewpoint Dewpoint Depression Visibility Wind Speed Wind Dir Waves Ship Positions

Drifting buoy 17652

Last reported at 2014-Oct-25 12:00 UTC. Time now 2014-Oct-25 13:36 UTC.
Position S 37°50' E 040°47'.

Water temperature 16.8 ° C

Date/timePositionNaut miles runAvg speedWind from/ knotsBaromVisibWave heightAir tempDewpointWater temp
2014-Oct-25 12:00S 37°50' E 040°47'1 1.0 16.8
2014-Oct-25 11:00S 37°50' E 040°48'2 0.3 16.8
2014-Oct-25 05:00S 37°50' E 040°51'1 0.4 16.8
2014-Oct-25 03:00S 37°49' E 040°51'1 0.5 16.8
2014-Oct-25 01:00S 37°48' E 040°51'0 0.3 16.9
2014-Oct-25 00:00S 37°48' E 040°51'1 1.0 16.9
2014-Oct-24 23:00S 37°47' E 040°51'0 0.0 16.9
2014-Oct-24 22:00S 37°47' E 040°51'2 0.8 16.9
2014-Oct-24 19:00S 37°45' E 040°52'0 0.0 16.9
2014-Oct-24 18:00S 37°45' E 040°52'3 0.9 16.9
2014-Oct-24 15:00S 37°42' E 040°53'2 1.7 17.0
2014-Oct-24 14:00S 37°41' E 040°55'0 0.4 17.0
2014-Oct-24 13:00S 37°41' E 040°55'5 0.7 17.1
2014-Oct-24 06:00S 37°40' E 041°01'1 0.5 16.8
2014-Oct-24 04:00S 37°39' E 041°02'1 0.8 16.8
2014-Oct-24 03:00S 37°39' E 041°02'0 0.2 16.8
2014-Oct-24 02:00S 37°39' E 041°02'1 1.1 16.8
2014-Oct-24 01:00S 37°38' E 041°03'0 0.2 16.8
2014-Oct-24 00:00S 37°38' E 041°04'1 0.7 16.8
2014-Oct-23 22:00S 37°37' E 041°05'5 0.8 16.8
2014-Oct-23 16:00S 37°33' E 041°09'1 0.7 16.8
2014-Oct-23 15:00S 37°32' E 041°09'1 0.9 16.8
2014-Oct-23 14:00S 37°32' E 041°10'8 1.2 16.9
2014-Oct-23 07:00S 37°27' E 041°19'0 0.0 16.8
2014-Oct-23 06:00S 37°27' E 041°19'0 0.3 16.8
2014-Oct-23 05:00S 37°27' E 041°19'0 0.1 16.8
2014-Oct-23 04:00S 37°27' E 041°19'3 1.6 16.8
2014-Oct-23 02:00S 37°25' E 041°22'0 0.0 16.8
2014-Oct-23 01:00S 37°25' E 041°22'0 0.3 16.7
2014-Oct-23 00:00S 37°25' E 041°23'1 1.3 16.7
2014-Oct-22 23:00S 37°24' E 041°24'0 0.0 16.8
2014-Oct-22 22:00S 37°24' E 041°24'3 1.1 16.8
2014-Oct-22 19:00S 37°23' E 041°27'2 1.9 16.8
2014-Oct-22 18:00S 37°22' E 041°30'0 0.0 16.8
2014-Oct-22 17:00S 37°22' E 041°30'1 1.4 16.8
2014-Oct-22 16:00S 37°21' E 041°31'1 1.4 16.8
2014-Oct-22 15:00S 37°20' E 041°32'2 1.6 16.8
2014-Oct-22 14:00S 37°20' E 041°34'0 0.1 16.9
2014-Oct-22 13:00S 37°20' E 041°34'3 0.8 16.9
2014-Oct-22 10:00S 37°19' E 041°37'4 2.1 16.8
2014-Oct-22 08:00S 37°18' E 041°42'1 0.3 16.8
2014-Oct-22 06:00S 37°18' E 041°43'1 0.5 16.8
2014-Oct-22 03:00S 37°19' E 041°45'2 1.1 16.7
2014-Oct-22 01:00S 37°19' E 041°47'1 0.4 16.7
2014-Oct-21 23:00S 37°19' E 041°48'2 1.6 16.7
2014-Oct-21 22:00S 37°20' E 041°50'2 0.8 16.7
2014-Oct-21 20:00S 37°21' E 041°51'0 0.2 16.7
2014-Oct-21 19:00S 37°21' E 041°52'4 0.9 16.7
2014-Oct-21 14:00S 37°24' E 041°56'2 1.9 16.8
2014-Oct-21 13:00S 37°25' E 041°58'0 0.0 16.8
2014-Oct-21 12:00S 37°25' E 041°58'0 0.0 16.8
2014-Oct-21 11:00S 37°25' E 041°58'5 1.6 16.8
2014-Oct-21 08:00S 37°29' E 042°02'0 0.0 16.7
2014-Oct-21 07:00S 37°29' E 042°02'5 4.9 16.7
2014-Oct-21 06:00S 37°32' E 042°07'0 0.0 16.7
2014-Oct-21 05:00S 37°32' E 042°07'7 1.6 16.7
2014-Oct-21 01:00S 37°35' E 042°14'0 0.0 16.7
2014-Oct-21 00:00S 37°35' E 042°14'3 3.0 16.8
2014-Oct-20 23:00S 37°35' E 042°18'2 1.0 16.8
2014-Oct-20 21:00S 37°35' E 042°21'2 0.5 16.8
2014-Oct-20 18:00S 37°34' E 042°23'5 1.6 16.8
2014-Oct-20 15:00S 37°34' E 042°29'0 0.0 16.9
2014-Oct-20 14:00S 37°34' E 042°29'3 0.7 16.9
2014-Oct-20 09:00S 37°36' E 042°33'5 1.7 16.9
2014-Oct-20 06:00S 37°40' E 042°37'0 0.0 16.9
2014-Oct-20 05:00S 37°40' E 042°37'1 0.6 16.9
2014-Oct-20 04:00S 37°40' E 042°37'1 0.6 16.9
2014-Oct-20 02:00S 37°41' E 042°38'1 1.1 16.9
2014-Oct-20 01:00S 37°42' E 042°38'1 0.7 16.9
2014-Oct-20 00:00S 37°42' E 042°39'1 0.4 16.9
2014-Oct-19 21:00S 37°43' E 042°40'1 1.4 16.9
2014-Oct-19 20:00S 37°45' E 042°41'1 0.5 16.9
2014-Oct-19 18:00S 37°45' E 042°42'1 0.6 16.9
2014-Oct-19 16:00S 37°46' E 042°43'1 0.6 16.9
2014-Oct-19 15:00S 37°46' E 042°43'0 0.3 16.9
2014-Oct-19 14:00S 37°47' E 042°43'1 1.1 16.9
2014-Oct-19 13:00S 37°47' E 042°44'1 0.8 16.9
2014-Oct-19 12:00S 37°47' E 042°45'1 0.3 16.9
2014-Oct-19 10:00S 37°47' E 042°46'4 0.8 16.9
2014-Oct-19 05:00S 37°48' E 042°51'0 0.0 16.9
2014-Oct-19 04:00S 37°48' E 042°51'0 0.1 16.9
2014-Oct-19 03:00S 37°48' E 042°51'2 1.7 16.9
2014-Oct-19 02:00S 37°48' E 042°53'1 1.0 16.9
2014-Oct-19 01:00S 37°49' E 042°54'1 0.5 16.9
2014-Oct-18 22:00S 37°50' E 042°55'1 1.0 16.9
2014-Oct-18 21:00S 37°50' E 042°56'2 0.6 16.9
2014-Oct-18 17:00S 37°51' E 042°59'1 0.7 16.9
2014-Oct-18 15:00S 37°52' E 042°60'2 0.8 16.9
2014-Oct-18 13:00S 37°53' E 043°02'0 0.3 16.9
2014-Oct-18 12:00S 37°53' E 043°02'1 1.2 17.0
2014-Oct-18 11:00S 37°54' E 043°03'4 0.7 17.0
2014-Oct-18 06:00S 37°56' E 043°06'2 2.2 16.9
2014-Oct-18 05:00S 37°58' E 043°08'1 0.4 16.9
2014-Oct-18 02:00S 37°59' E 043°09'1 1.2 16.9
2014-Oct-18 01:00S 38°00' E 043°09'5 1.0 16.9
2014-Oct-17 20:00S 38°05' E 043°11'2 1.6 16.9
2014-Oct-17 19:00S 38°06' E 043°11'1 0.5 16.9
2014-Oct-17 17:00S 38°07' E 043°12'1 0.7 16.9
2014-Oct-17 15:00S 38°08' E 043°14'8 0.8 16.9
2014-Oct-17 05:00S 38°12' E 043°22'4 1.5 16.4
2014-Oct-17 02:00S 38°15' E 043°25'0 0.0 16.4
2014-Oct-17 01:00S 38°15' E 043°25'1 1.4 16.4
2014-Oct-17 00:00S 38°16' E 043°27'2 0.6 16.4
2014-Oct-16 20:00S 38°18' E 043°29'4 1.2 16.4
2014-Oct-16 17:00S 38°20' E 043°33'14 1.3 16.6
2014-Oct-16 06:00S 38°31' E 043°45'4 0.7 16.7
2014-Oct-16 01:00S 38°33' E 043°48'2 0.6 16.6
2014-Oct-15 22:00S 38°34' E 043°50'4 1.1 16.6
2014-Oct-15 18:00S 38°37' E 043°54'2 1.0 16.7
2014-Oct-15 16:00S 38°37' E 043°57'4 2.2 16.7
2014-Oct-15 14:00S 38°39' E 044°01'1 0.6 16.7
2014-Oct-15 13:00S 38°40' E 044°02'   16.7

Dump ship's entire track history